CYHY

Hay River / Merlyn Carter Airport

Hay River, Northwest Territories, Canada
METAR CYHY 230700Z 19008KT 15SM SCT220 M09/M13 A2961 RMK CI4 SLP042
Observed Flight Rules
Feb-23 @ 07:00 UTC (an hour ago) Visual Flight Rules
Wind Visibility Clouds
190° at 8 knots 15 miles
  • Scattered at 22,000' AGL
Temperatures Readings
Current -9°C / 16°F
Dewpoint -13°C / 9°F
Humidity 73%
Altimeter 29.61" Hg
Pressure 1004.2 hPa
Elevation 166
METAR CYHY 230700Z 19008KT 15SM SCT220 M09/M13 A2961 RMK CI4 SLP042
Observed Flight Rules
Feb-23 @ 07:00 UTC
(an hour ago)
VFR
Wind Visibility
190° at 8 knots 15 miles
Clouds
  • Scattered at 22,000' AGL
Temperature Dewpoint
-9°C / 16°F -13°C / 9°F
Humidity Altimeter Pressure
73% 29.61" Hg 1004.2 hPa